San Diego Classic - Holiday Cup - Inventory

Station: INVENTORY - T Race

Distance: 10 Miles    

Release: 08-Sep-2021 07:30

Weather Release:    Arrival:

Wind at Release:     Wind at Arrival:

Temp at Release: °    Temp at Arrival: °

Lofts: 119

Birds: 598

Clocked: 589

Good Luck to Everyone!
Drops Pos Breeder Pigeon Name Color Sex Ent Arrival Speed To Win Elg PdRaceAvg Speed
1 Victoria Falls World Challenge/Tbw - ZW 10493-AU21-VFWC BBSP H 1 07:42:01.00 1464.632 00:00:00 Yes
2 Greg McKnight - CA 0755-AU21-JEDD BBSP H 1 07:42:54.30 1363.812 00:00:53 Yes
3 Eduardo Torres - TX 26245-AU21-JEDD BB H 1 07:43:04.00 1346.939 00:01:03 Yes
4 Tim Brandon - CA 21164-AU21-SNV BCWF H 1 07:43:08.50 1339.252 00:01:07 Yes
5 Greg McKnight - CA 0750-AU21-JEDD BBSP H 2 07:43:36.60 1293.167 00:01:36 Yes
6 Michael Kelly - CA 1148-AU21-NSL Ron’s Boy BC C 1 07:43:39.00 1289.377 00:01:38 Yes
7 Santa Rosa Loft - 0239-IF21-MTFL BC H 1 07:43:39.80 1288.119 00:01:39 Yes
8 Irma Derrick - CA 0107-AU21-HALE BBSP H 1 07:43:51.50 1269.994 00:01:50 Yes
9 Irma Derrick - CA 0115-AU21-HALE BB H 2 07:43:52.70 1268.164 00:01:52 Yes
10 Tim Brandon - CA 39142-AU21-JEDD BB H 2 07:43:54.60 1265.277 00:01:54 Yes
11 Tony Chang - CA 0704-AU21-PAL BB H 1 07:43:55.10 1264.519 00:01:54 Yes
12 Duane Gragg - CA 0317-AU21-AUB BB H 1 07:43:56.20 1262.856 00:01:55 Yes
13 Tony Chang - CA 0440-AU21-SD BBSP H 2 07:43:59.70 1257.592 00:01:59 Yes
14 Mt. Helix Loft - CA 1169-AU21-MHL BB H 1 07:44:06.20 1247.932 00:02:05 Yes
15 No Limit Loft - CA 34639-AU21-JEDD BC H 1 07:44:08.00 1245.283 00:02:07 Yes
16 Army Loft - 2219-AU21-VITA BBSP H 1 07:44:09.30 1243.377 00:02:08 Yes
17 Bill Dozier - TX 4220-AU21-TEXA DCWF H 1 07:44:24.10 1222.081 00:02:23 Yes
18 Tim Brandon - CA 21157-AU21-SNV BLK H 3 07:44:30.60 1212.957 00:02:30 Yes
19 Sterchi & Bieche - CA 1093-AU21-AUB BB H 1 07:45:04.70 1167.238 00:03:04 Yes
20 TOPO - CA 1209-AU21-SDM BB H 1 07:45:17.60 1150.828 00:03:17 Yes
21 Nanez Family Loft - WI 1464-AU21-NANE BB H 1 07:45:24.30 1142.486 00:03:23 Yes
22 Humberto Franco - 9873-AU21-ARPU BC H 1 07:45:26.40 1139.896 00:03:25 Yes
23 Crazy Als Lofts - CO 6061-AU21-CRAZ BBSP H 1 07:45:33.30 1131.469 00:03:32 Yes
24 Tim Thompson - CA 0517-AU21-TOP BC H 1 07:45:41.70 1121.376 00:03:41 Yes
25 Lulus Loft - CA 1045-AU21-SD BB H 1 07:45:42.70 1120.187 00:03:42 Yes
26 Alma Missiles Castro - AZ 24057-AU21-MISS SLAT H 1 07:45:44.30 1118.289 00:03:43 Yes
27 Missiles Castro - AZ 24032-AU21-MISS BB H 1 07:45:45.10 1117.342 00:03:44 Yes
28 Bill Dozier - TX 4219-AU21-TEXA BC H 2 07:45:47.90 1114.042 00:03:47 Yes
29 Junior Juanich - CA 0015-AU21-JRL SIL H 1 07:45:48.90 1112.868 00:03:48 Yes
30 Eduardo Torres - TX 26250-AU21-JEDD BC H 2 07:45:49.70 1111.930 00:03:49 Yes
31 Desert Rose Loft - NV 0966-AU21-DRL BB H 1 07:45:51.20 1110.177 00:03:50 Yes
32 Tony Chang - CA 0708-AU21-PAL BC H 3 07:45:53.00 1108.080 00:03:52 Yes
33 Rick Barker - CA 39168-AU21-JEDD BBWF H 1 07:45:54.10 1106.802 00:03:53 Yes
34 Michael Groe - CA 2190-AU21-GROE 9048X11503 BB H 1 07:45:55.10 1105.643 00:03:54 Yes
35 Dudley/Moden - CA 1150-AU21-NSL BB H 1 07:45:55.60 1105.065 00:03:55 Yes
36 Sterchi & Bieche - CA 1094-AU21-AUB BB H 2 07:45:56.50 1104.025 00:03:55 Yes
37 Gene & Eddie - CA 0369-AU21-VIP BB H 1 07:45:57.30 1103.102 00:03:56 Yes
38 No Limit Loft - CA 34690-AU21-JEDD BB H 2 07:45:57.90 1102.412 00:03:57 Yes
39 Genesis Syndicate Loft - AZ 0382-AU21-GENE BBWF H 1 07:46:00.40 1099.542 00:03:59 Yes
40 Bill Dozier - TX 4221-AU21-TEXA BBSP H 3 07:46:00.90 1098.970 00:04:00 Yes
41 Alma Missiles Castro - AZ 24036-AU21-MISS BBWF H 2 07:46:01.50 1098.284 00:04:00 Yes
42 Lamberton & Honeywell - OK 0042-AU21-LAMB BB H 1 07:46:02.90 1096.687 00:04:02 Yes
43 Milestone Loft - CA 0148-AU21-SD BB H 1 07:46:04.80 1094.527 00:04:04 Yes
44 Eduardo Torres - TX 26349-AU21-JEDD BB H 3 07:46:05.40 1093.847 00:04:04 Yes
45 Desert Rose Loft - NV 0954-AU21-DRL BB H 2 07:46:11.70 1086.755 00:04:11 Yes
46 Alas de Oro - NV 1005-IF21-E BB H 1 07:46:12.90 1085.415 00:04:12 Yes
47 Four For More - CA 0303-AU21-VIP BB H 1 07:46:13.40 1084.857 00:04:12 Yes
48 Hi-Cal Connection - CA 0773-AU21-HICA BB H 1 07:46:13.80 1084.412 00:04:13 Yes
49 Venn Family Loft - WY 11484-AU21-ARPU BB H 1 07:46:15.50 1082.522 00:04:14 Yes
50 Hawaiian Express - CA 0482-AU21-WWC DCSP H 1 07:46:16.80 1081.081 00:04:16 Yes
51 Cloux Loft - CO 21981-AU21-FH BC H 1 07:46:18.40 1079.313 00:04:17 Yes
52 Hi-Cal Connection - CA 0737-AU21-SD BBWF H 2 07:46:20.80 1076.672 00:04:20 Yes
53 Cloux Loft - CO 21984-AU21-FH RC H 2 07:46:23.30 1073.935 00:04:22 Yes
54 Greg McKnight - CA 0740-AU21-JEDD BBWF H 3 07:46:23.80 1073.389 00:04:23 Yes
55 Michael Groe - CA 0239-AU21-COM 899X68 BB H 2 07:46:24.40 1072.735 00:04:23 Yes
56 Partridge Family Loft - CA 5627-AU21-JEDD BBWF H 1 07:46:25.00 1072.081 00:04:24 Yes
57 O C F Syndicate - CA 1050-AU21-TOP BCSP H 1 07:46:25.50 1071.537 00:04:25 Yes
58 Cloux Loft - CO 21985-AU21-FH SIL H 3 07:46:26.90 1070.017 00:04:26 Yes
59 Farmers Loft - CA 21001-AU21-FARM BB H 1 07:46:34.70 1061.627 00:04:34 Yes
60 Humberto Franco - 9781-AU21-ARPU BB H 2 07:46:40.90 1055.050 00:04:40 Yes
61 Nanez Family Loft - WI 1474-AU21-NANE BB H 2 07:46:44.10 1051.688 00:04:43 Yes
62 Duane Gragg - CA 0318-AU21-AUB BC H 2 07:46:44.90 1050.851 00:04:44 Yes
63 Rick Barker - CA 0193-AU21-VIP BB H 2 07:46:48.10 1047.515 00:04:47 Yes
64 Greg McKnight - CA 0751-AU21-JEDD BBSP H 4 07:46:49.40 1046.166 00:04:48 Yes
65 Humberto Franco - 21531-MX21-FMC DC H 3 07:46:50.50 1045.027 00:04:49 Yes
66 Nanez Family Loft - WI 1375-AU21-NANE BB H 3 07:46:51.30 1044.201 00:04:50 Yes
67 Santa Rosa Loft - 11692-AU21-JEDD BBWF H 2 07:46:52.90 1042.551 00:04:52 Yes
68 Partridge Family Loft - CA 5677-AU21-JEDD BB H 2 07:46:54.60 1040.804 00:04:54 Yes
69 J J J Team - CA 0779-AU21-SD BB H 1 07:46:54.70 1040.702 00:04:54 Yes
69 Sandstrom Brothers Loft - MN 0370-AU21-SBL BC H 1 07:46:54.70 1040.702 00:04:54 Yes
71 Dan & Greg Coury - AZ 1194-AU21-PEGA BC H 1 07:46:55.30 1040.087 00:04:54 Yes
72 Partridge Family Loft - CA 5654-AU21-JEDD BB H 3 07:46:56.20 1039.166 00:04:55 Yes
73 Baldwin & Tillson - NC 1161-AU21-TENT (CHAMP)1662-52(CA 2ND) BB H 1 07:46:58.50 1036.819 00:04:57 Yes
74 Ledet-Gutrz - LA 21190-AU21-LEGU DC H 1 07:46:59.00 1036.310 00:04:58 Yes
75 Fritzie’s Hutch - CA 10566-AU21-JEDD Pinay BBWF H 1 07:46:59.90 1035.396 00:04:59 Yes
76 Lionello & Gluck Bros. - 2231-AU21-SANT BB H 1 07:47:00.60 1034.685 00:05:00 Yes
77 Tony Chang - CA 0712-AU21-PAL BC H 4 07:47:02.10 1033.167 00:05:01 Yes
78 Alma Missiles Castro - AZ 24026-AU21-MISS BBSP H 3 07:47:02.70 1032.561 00:05:02 Yes
79 Venn Family Loft - WY 11463-AU21-ARPU BBWF H 2 07:47:03.80 1031.451 00:05:03 Yes
80 Irish Syndicate - AZ 44438-AU21-ARPU BC H 1 07:47:05.00 1030.244 00:05:04 Yes
80 Gene & Eddie - CA 0368-AU21-VIP BC H 2 07:47:05.00 1030.244 00:05:04 Yes
82 Red Star Loft - PH 0606-AU21-SD BB H 1 07:47:05.90 1029.340 00:05:05 Yes
82 Junior Juanich - CA 0009-AU21-JRL BB H 2 07:47:05.90 1029.340 00:05:05 Yes
84 Irma Derrick - CA 0102-AU21-HALE SIL H 3 07:47:08.20 1027.038 00:05:07 Yes
85 Venn Family Loft - WY 11501-AU21-ARPU BB H 3 07:47:08.80 1026.439 00:05:08 Yes
86 Nemelka Racing Pigeon Loft - UT 1082-AU21-NRPL BB H 1 07:47:09.60 1025.641 00:05:09 Yes
87 Desert Rose Loft - NV 0968-AU21-DRL PEN H 3 07:47:12.10 1023.157 00:05:11 Yes
88 Nemelka Racing Pigeon Loft - UT 1086-AU21-NRPL BC H 2 07:47:16.40 1018.912 00:05:15 Yes
89 Cloux Loft - CO 21987-AU21-FH BB H 4 07:47:16.50 1018.813 00:05:16 Yes
90 Patriot Lofts - TX 1056-IF21-E BC H 1 07:47:17.00 1018.322 00:05:16 Yes
91 Tim Brandon - CA 21163-AU21-SNV BC H 4 07:47:17.10 1018.224 00:05:16 Yes
92 Humberto Munoz - EM 9169-MX21-FMC BB H 1 07:47:19.70 1015.678 00:05:19 Yes
93 Desert Rose Loft - NV 0960-AU21-DRL BB H 4 07:47:20.50 1014.897 00:05:19 Yes
94 Steve Lance - CA 0149-AU21-TOP BBSP H 1 07:47:21.30 1014.117 00:05:20 Yes
95 No Limit Loft - CA 34626-AU21-JEDD BB H 3 07:47:22.40 1013.047 00:05:21 Yes
96 No Limit Loft - CA 34625-AU21-JEDD BB H 4 07:47:24.90 1010.623 00:05:24 Yes
97 Team Phoenix - AZ 0071-AU21-TPHO BC H 1 07:47:28.30 1007.345 00:05:27 Yes
98 Smib Loft - CA 1341-AU21-SD BB H 1 07:47:28.80 1006.865 00:05:28 Yes
99 Venn Family Loft - WY 11460-AU21-ARPU BB H 4 07:47:30.10 1005.619 00:05:29 Yes
100 Sandstrom Brothers Loft - MN 0371-AU21-SBL BC H 2 07:47:30.60 1005.140 00:05:30 Yes

There are 589 bird records

Note: These Race Results are unofficial and subject to change until verified by the Race Committee and declared final.